createdAt,value
2022-10-09T00:01:57.146Z,96358.09
2022-10-09T00:04:46.248Z,96351.53
2022-10-09T00:07:36.436Z,96348.95
2022-10-09T00:13:12.766Z,96341.91
2022-10-09T00:18:55.868Z,96344.39
2022-10-09T00:24:32.855Z,96340.15
2022-10-09T00:30:11.815Z,96328.92
2022-10-09T00:35:44.636Z,96334.37
2022-10-09T00:41:22.691Z,96322.47
2022-10-09T00:45:00.248Z,96326.00
2022-10-09T00:47:50.086Z,96331.12
2022-10-09T00:50:43.697Z,96322.49
2022-10-09T00:56:13.411Z,96315.15
2022-10-09T01:01:49.855Z,96310.09
2022-10-09T01:04:38.664Z,96306.18
2022-10-09T01:10:26.352Z,96302.06
2022-10-09T01:13:17.637Z,96299.86
2022-10-09T01:19:02.022Z,96283.34
2022-10-09T01:21:54.093Z,96279.56
2022-10-09T01:27:22.956Z,96277.73
2022-10-09T01:32:54.952Z,96266.55
2022-10-09T01:38:25.506Z,96254.44
2022-10-09T01:43:59.205Z,96251.52
2022-10-09T01:46:50.576Z,96252.31
2022-10-09T01:52:44.080Z,96252.66
2022-10-09T02:01:23.395Z,96238.32
2022-10-09T02:04:14.058Z,96235.86
2022-10-09T02:09:41.041Z,96226.97
2022-10-09T02:15:18.601Z,96227.33
2022-10-09T02:23:44.244Z,96223.59
2022-10-09T02:29:31.584Z,96222.58
2022-10-09T02:32:20.146Z,96220.34
2022-10-09T02:37:57.817Z,96217.77
2022-10-09T02:40:46.834Z,96228.15
2022-10-09T02:46:22.984Z,96218.75
2022-10-09T02:52:01.189Z,96214.19
2022-10-09T02:54:53.511Z,96207.56
2022-10-09T03:00:29.891Z,96204.94
2022-10-09T03:03:18.148Z,96205.34
2022-10-09T03:08:58.702Z,96211.42
2022-10-09T03:11:48.395Z,96212.20
2022-10-09T03:17:24.244Z,96211.78
2022-10-09T03:20:12.710Z,96208.86
2022-10-09T03:25:39.704Z,96205.45
2022-10-09T03:31:50.040Z,96207.02
2022-10-09T03:37:01.151Z,96203.14
2022-10-09T03:42:37.459Z,96209.20
2022-10-09T03:48:15.598Z,96200.58
2022-10-09T03:51:05.450Z,96196.20
2022-10-09T03:56:40.262Z,96196.67
2022-10-09T04:02:23.594Z,96199.23
2022-10-09T04:08:02.059Z,96198.22
2022-10-09T04:13:39.451Z,96199.23
2022-10-09T04:19:10.067Z,96200.78
2022-10-09T04:24:46.594Z,96192.62
2022-10-09T04:30:16.603Z,96192.92
2022-10-09T04:35:54.297Z,96189.26
2022-10-09T04:41:23.344Z,96178.30
2022-10-09T04:46:55.475Z,96181.87
2022-10-09T04:52:23.320Z,96178.12
2022-10-09T04:55:12.816Z,96183.80
2022-10-09T05:00:46.279Z,96181.39
2022-10-09T05:06:21.551Z,96186.91
2022-10-09T05:11:51.992Z,96178.30
2022-10-09T05:14:41.424Z,96186.81
2022-10-09T05:20:10.355Z,96178.17
2022-10-09T05:25:55.320Z,96193.70
2022-10-09T05:28:44.436Z,96192.53
2022-10-09T05:31:33.140Z,96189.75
2022-10-09T05:37:24.080Z,96184.10
2022-10-09T05:42:56.028Z,96186.22
2022-10-09T05:45:44.431Z,96189.64
2022-10-09T05:48:33.075Z,96193.32
2022-10-09T05:54:10.573Z,96195.24
2022-10-09T05:59:40.851Z,96201.63
2022-10-09T06:05:17.288Z,96205.05
2022-10-09T06:10:49.828Z,96205.08
2022-10-09T06:13:39.312Z,96203.38
2022-10-09T06:19:17.186Z,96201.76
2022-10-09T06:22:05.530Z,96204.23
2022-10-09T06:24:53.731Z,96205.83
2022-10-09T06:27:42.246Z,96208.78
2022-10-09T06:30:40.827Z,96214.90
2022-10-09T06:33:32.360Z,96215.87
2022-10-09T06:39:10.964Z,96214.95
2022-10-09T06:44:35.322Z,96223.08
2022-10-09T06:47:23.519Z,96223.66
2022-10-09T06:50:13.522Z,96226.13
2022-10-09T06:55:53.053Z,96223.15
2022-10-09T07:01:32.243Z,96226.59
2022-10-09T07:04:22.488Z,96226.65
2022-10-09T07:07:11.201Z,96229.13
2022-10-09T07:10:00.352Z,96225.92
2022-10-09T07:18:25.462Z,96230.47
2022-10-09T07:24:02.867Z,96231.88
2022-10-09T07:29:36.343Z,96231.30
2022-10-09T07:32:25.079Z,96242.73
2022-10-09T07:40:44.126Z,96223.31
2022-10-09T07:46:19.524Z,96226.10
2022-10-09T07:51:49.591Z,96228.21
2022-10-09T07:54:38.221Z,96228.08
2022-10-09T07:57:26.504Z,96228.99
2022-10-09T08:03:02.889Z,96239.45
2022-10-09T08:08:43.887Z,96226.45
2022-10-09T08:14:19.790Z,96222.84
2022-10-09T08:19:53.951Z,96224.12
2022-10-09T08:25:29.701Z,96217.95
2022-10-09T08:28:18.771Z,96225.49
2022-10-09T08:31:15.432Z,96225.00
2022-10-09T08:36:51.106Z,96230.77
2022-10-09T08:42:33.114Z,96227.21
2022-10-09T08:45:25.794Z,96225.89
2022-10-09T08:51:03.696Z,96234.94
2022-10-09T08:56:40.032Z,96226.16
2022-10-09T09:02:25.468Z,96226.66
2022-10-09T09:08:17.337Z,96219.55
2022-10-09T09:14:00.283Z,96222.56
2022-10-09T09:19:57.625Z,96212.51
2022-10-09T09:28:23.770Z,96217.37
2022-10-09T09:34:06.790Z,96211.09
2022-10-09T09:45:20.149Z,96216.17
2022-10-09T09:51:16.230Z,96212.16
2022-10-09T09:53:49.093Z,96215.50
2022-10-09T09:57:10.363Z,96208.83
2022-10-09T10:02:26.174Z,96207.77
2022-10-09T10:08:22.737Z,96200.80
2022-10-09T10:14:10.314Z,96201.52
2022-10-09T10:19:51.718Z,96206.42
2022-10-09T10:22:39.911Z,96199.09
2022-10-09T10:28:21.463Z,96201.25
2022-10-09T10:36:42.555Z,96192.62
2022-10-09T10:39:35.195Z,96191.41
2022-10-09T10:45:17.031Z,96194.56
2022-10-09T10:48:08.858Z,96186.48
2022-10-09T10:56:40.712Z,96183.79
2022-10-09T11:02:42.071Z,96182.31
2022-10-09T11:14:35.790Z,96178.58
2022-10-09T11:20:40.036Z,96175.41
2022-10-09T11:26:23.260Z,96166.92
2022-10-09T11:32:08.609Z,96163.66
2022-10-09T11:37:49.201Z,96155.25
2022-10-09T11:43:48.489Z,96148.00
2022-10-09T11:46:44.248Z,96152.33
2022-10-09T11:55:25.450Z,96138.92
2022-10-09T11:58:25.924Z,96142.09
2022-10-09T12:04:50.121Z,96133.92
2022-10-09T12:10:06.394Z,96128.41
2022-10-09T12:16:01.308Z,96117.88
2022-10-09T12:18:51.632Z,96120.16
2022-10-09T12:21:43.656Z,96114.88
2022-10-09T12:24:33.993Z,96108.19
2022-10-09T12:27:25.050Z,96110.79
2022-10-09T12:30:21.647Z,96110.70
2022-10-09T12:36:05.149Z,96096.73
2022-10-09T12:44:41.537Z,96095.28
2022-10-09T12:50:26.836Z,96088.45
2022-10-09T12:53:18.370Z,96093.05
2022-10-09T12:58:56.582Z,96082.05
2022-10-09T13:04:35.597Z,96078.95
2022-10-09T13:10:20.163Z,96068.70
2022-10-09T13:13:15.305Z,96067.90
2022-10-09T13:19:01.455Z,96066.91
2022-10-09T13:24:50.013Z,96054.97
2022-10-09T13:27:40.058Z,96053.56
2022-10-09T13:30:28.668Z,96054.05
2022-10-09T13:33:18.782Z,96060.61
2022-10-09T13:36:07.928Z,96047.88
2022-10-09T13:41:45.016Z,96047.38
2022-10-09T13:44:33.266Z,96045.19
2022-10-09T13:50:14.001Z,96030.85
2022-10-09T13:55:48.224Z,96026.27
2022-10-09T13:58:38.269Z,96035.52
2022-10-09T14:01:26.910Z,96032.31
2022-10-09T14:07:03.870Z,96025.09
2022-10-09T14:09:51.691Z,96023.39
2022-10-09T14:15:28.276Z,96011.02
2022-10-09T14:21:14.616Z,96005.12
2022-10-09T14:24:01.002Z,96012.88
2022-10-09T14:29:32.184Z,96014.08
2022-10-09T14:32:20.509Z,96014.37
2022-10-09T14:37:59.424Z,96005.91
2022-10-09T14:43:36.192Z,95995.84
2022-10-09T14:49:13.102Z,95993.78
2022-10-09T14:54:48.028Z,95992.80
2022-10-09T15:03:05.475Z,95990.85
2022-10-09T15:08:53.024Z,95985.89
2022-10-09T15:14:30.253Z,95986.48
2022-10-09T15:17:18.751Z,95986.61
2022-10-09T15:20:08.264Z,95976.80
2022-10-09T15:22:56.767Z,95976.81
2022-10-09T15:28:29.085Z,95972.45
2022-10-09T15:31:22.810Z,95965.68
2022-10-09T15:36:56.605Z,95965.51
2022-10-09T15:39:47.123Z,95966.23
2022-10-09T15:45:24.098Z,95968.45
2022-10-09T15:51:11.578Z,95956.00
2022-10-09T15:56:49.168Z,95953.73
2022-10-09T16:02:25.748Z,95948.83
2022-10-09T16:08:06.025Z,95950.88
2022-10-09T16:13:43.626Z,95949.54
2022-10-09T16:19:14.981Z,95946.69
2022-10-09T16:22:04.955Z,95945.38
2022-10-09T16:24:53.110Z,95941.38
2022-10-09T16:33:22.487Z,95931.70
2022-10-09T16:39:04.322Z,95933.05
2022-10-09T16:47:28.215Z,95935.42
2022-10-09T16:53:03.760Z,95934.51
2022-10-09T16:58:42.714Z,95942.92
2022-10-09T17:04:37.371Z,95947.41
2022-10-09T17:10:13.566Z,95950.64
2022-10-09T17:15:49.751Z,95959.17
2022-10-09T17:21:27.955Z,95960.73
2022-10-09T17:24:16.700Z,95964.49
2022-10-09T17:27:07.117Z,95960.86
2022-10-09T17:32:36.830Z,95953.37
2022-10-09T17:35:25.040Z,95958.75
2022-10-09T17:41:00.748Z,95959.30
2022-10-09T17:46:32.850Z,95959.89
2022-10-09T17:54:54.248Z,95950.09
2022-10-09T18:03:12.727Z,95962.00
2022-10-09T18:08:39.983Z,95968.22
2022-10-09T18:14:13.098Z,95960.59
2022-10-09T18:19:41.289Z,95965.59
2022-10-09T18:25:25.389Z,95963.13
2022-10-09T18:31:04.499Z,95955.70
2022-10-09T18:39:28.914Z,95956.16
2022-10-09T18:45:13.699Z,95950.97
2022-10-09T18:50:50.928Z,95944.13
2022-10-09T18:53:40.248Z,95945.53
2022-10-09T18:59:20.909Z,95947.55
2022-10-09T19:02:10.174Z,95946.66
2022-10-09T19:04:58.864Z,95947.38
2022-10-09T19:10:51.380Z,95946.69
2022-10-09T19:16:24.380Z,95945.33
2022-10-09T19:19:14.467Z,95940.10
2022-10-09T19:22:04.306Z,95941.70
2022-10-09T19:24:53.443Z,95946.67
2022-10-09T19:27:47.178Z,95943.27
2022-10-09T19:33:26.601Z,95941.68
2022-10-09T19:41:41.891Z,95944.39
2022-10-09T19:47:33.521Z,95942.58
2022-10-09T19:53:27.371Z,95947.55
2022-10-09T19:58:58.911Z,95944.13
2022-10-09T20:07:12.833Z,95950.71
2022-10-09T20:10:01.241Z,95948.08
2022-10-09T20:12:50.856Z,95946.85
2022-10-09T20:18:31.643Z,95945.48
2022-10-09T20:24:08.890Z,95952.75
2022-10-09T20:29:39.867Z,95952.52
2022-10-09T20:32:29.538Z,95952.30
2022-10-09T20:38:21.998Z,95946.27
2022-10-09T20:44:00.329Z,95946.30
2022-10-09T20:49:37.646Z,95948.46
2022-10-09T20:52:26.255Z,95956.52
2022-10-09T20:55:15.156Z,95951.08
2022-10-09T21:00:50.430Z,95952.11
2022-10-09T21:06:30.798Z,95944.42
2022-10-09T21:12:06.949Z,95953.16
2022-10-09T21:18:01.682Z,95955.86
2022-10-09T21:20:50.914Z,95961.20
2022-10-09T21:23:39.528Z,95963.01
2022-10-09T21:29:11.881Z,95960.96
2022-10-09T21:32:00.238Z,95971.08
2022-10-09T21:34:50.453Z,95964.46
2022-10-09T21:40:27.009Z,95962.20
2022-10-09T21:46:03.264Z,95960.73
2022-10-09T21:48:51.248Z,95962.79
2022-10-09T21:54:27.444Z,95972.66
2022-10-09T21:57:16.732Z,95963.70
2022-10-09T22:02:49.923Z,95969.83
2022-10-09T22:05:41.359Z,95971.63
2022-10-09T22:11:12.343Z,95964.03
2022-10-09T22:16:49.121Z,95964.28
2022-10-09T22:22:24.248Z,95966.89
2022-10-09T22:25:12.473Z,95967.77
2022-10-09T22:28:01.210Z,95965.97
2022-10-09T22:33:37.935Z,95964.73
2022-10-09T22:36:29.219Z,95966.18
2022-10-09T22:42:05.345Z,95961.41
2022-10-09T22:47:40.141Z,95959.38
2022-10-09T22:53:16.091Z,95966.41
2022-10-09T22:58:55.111Z,95960.63
2022-10-09T23:04:38.206Z,95964.71
2022-10-09T23:07:26.677Z,95956.88
2022-10-09T23:10:15.858Z,95960.30
2022-10-09T23:15:54.699Z,95959.85
2022-10-09T23:21:30.750Z,95958.72
2022-10-09T23:27:06.685Z,95951.45
2022-10-09T23:32:46.312Z,95958.48
2022-10-09T23:38:25.221Z,95961.44
2022-10-09T23:44:02.947Z,95946.70
2022-10-09T23:49:40.052Z,95949.42
2022-10-09T23:55:12.466Z,95957.12
2022-10-09T23:58:01.209Z,95951.58
